Time;durP1;ratioP1;P1;durP2;ratioP2;P2;SDS_P1;SDS_P2;PMS_P1;PMS_P2;Temp;Humidity;BMP_temperature;BMP_pressure;BME280_temperature;BME280_humidity;BME280_pressure;Samples;Min_cycle;Max_cycle;Signal;HPM_P1;HPM_P2
2023/08/08 00:02:01;;;;;;;2.83;1.30;;;12.50;99.90;;;;;;5062663;28;20033;-56
2023/08/08 00:04:27;;;;;;;2.20;1.30;;;12.50;99.90;;;;;;5057515;28;20025;-55
2023/08/08 00:06:52;;;;;;;6.63;1.65;;;12.50;99.90;;;;;;5055151;28;20124;-59
2023/08/08 00:09:18;;;;;;;;;;;12.50;99.90;;;;;;5050331;28;20029;-54
2023/08/08 00:11:43;;;;;;;4.35;1.27;;;12.40;99.90;;;;;;5061193;28;20327;-55
2023/08/08 00:14:09;;;;;;;4.85;1.52;;;12.50;99.90;;;;;;5062284;28;20025;-59
2023/08/08 00:16:34;;;;;;;3.00;1.10;;;12.40;99.90;;;;;;5063081;28;20037;-55
2023/08/08 00:19:00;;;;;;;1.73;0.90;;;12.40;99.90;;;;;;5053602;28;20032;-53
2023/08/08 00:21:25;;;;;;;3.35;1.60;;;12.40;99.90;;;;;;5058968;28;20029;-58
2023/08/08 00:23:51;;;;;;;2.63;1.55;;;12.40;99.90;;;;;;5058394;28;20020;-54
2023/08/08 00:26:17;;;;;;;4.05;1.08;;;12.40;99.90;;;;;;5065557;28;20024;-52
2023/08/08 00:28:42;;;;;;;4.75;1.30;;;12.40;99.90;;;;;;5062020;28;20025;-57
2023/08/08 00:31:08;;;;;;;5.93;2.30;;;12.40;99.90;;;;;;5056570;28;20025;-53
2023/08/08 00:33:33;;;;;;;;;;;12.40;99.90;;;;;;5059669;28;20029;-54
2023/08/08 00:35:59;;;;;;;4.80;1.35;;;12.40;99.90;;;;;;5058342;28;19931;-58
2023/08/08 00:38:24;;;;;;;;;;;12.30;99.90;;;;;;5051801;28;20086;-53
2023/08/08 00:40:50;;;;;;;2.58;1.30;;;12.40;99.90;;;;;;5057898;28;19913;-56
2023/08/08 00:43:15;;;;;;;1.98;1.08;;;12.40;99.90;;;;;;5061715;28;20033;-55
2023/08/08 00:45:43;;;;;;;4.45;1.17;;;12.30;99.90;;;;;;5058110;28;20135;-55
2023/08/08 00:48:08;;;;;;;6.30;2.33;;;12.30;99.90;;;;;;5064256;28;20033;-56
2023/08/08 00:50:36;;;;;;;3.85;1.83;;;12.30;99.90;;;;;;5062575;28;20391;-55
2023/08/08 00:53:02;;;;;;;6.28;1.38;;;12.30;99.90;;;;;;5066497;28;20536;-55
2023/08/08 00:55:28;;;;;;;7.13;1.60;;;12.30;99.90;;;;;;5047428;28;20103;-59
2023/08/08 00:57:54;;;;;;;6.10;1.75;;;12.30;99.90;;;;;;5049347;28;20683;-55
2023/08/08 01:00:19;;;;;;;3.75;1.38;;;12.30;99.90;;;;;;5062226;28;20024;-53
2023/08/08 01:02:45;;;;;;;;;;;12.30;99.90;;;;;;5051456;28;20070;-56
2023/08/08 01:05:11;;;;;;;3.92;1.80;;;12.30;99.90;;;;;;5053251;28;20011;-59
2023/08/08 01:07:45;;;;;;;2.90;1.25;;;12.20;99.90;;;;;;5067042;28;20028;-58
2023/08/08 01:10:41;;;;;;;2.28;1.38;;;12.20;99.90;;;;;;5056661;28;20029;-52
2023/08/08 01:13:15;;;;;;;2.03;1.38;;;12.20;99.90;;;;;;5039931;28;20125;-55
2023/08/08 01:15:42;;;;;;;3.55;1.13;;;12.20;99.90;;;;;;5053468;28;20029;-53
2023/08/08 01:18:09;;;;;;;4.20;1.48;;;12.20;99.90;;;;;;5059148;28;20017;-57
2023/08/08 01:20:36;;;;;;;3.15;1.30;;;12.20;99.90;;;;;;5066299;28;20483;-60
2023/08/08 01:23:19;;;;;;;6.75;1.73;;;12.20;99.90;;;;;;5060556;28;20411;-54
2023/08/08 01:25:46;;;;;;;6.97;2.53;;;12.20;99.90;;;;;;5058701;28;20487;-53
2023/08/08 01:28:12;;;;;;;2.10;1.42;;;12.20;99.90;;;;;;5060007;28;20106;-58
2023/08/08 01:30:38;;;;;;;5.55;1.20;;;12.20;99.90;;;;;;5048071;28;20327;-53
2023/08/08 01:33:06;;;;;;;;;;;12.20;99.90;;;;;;5061858;28;20090;-55
2023/08/08 01:35:39;;;;;;;2.90;1.42;;;12.20;99.90;;;;;;5053573;28;20003;-53
2023/08/08 01:38:19;;;;;;;3.63;1.58;;;12.20;99.90;;;;;;5055705;28;20375;-52
2023/08/08 01:40:45;;;;;;;6.82;2.58;;;12.20;99.90;;;;;;5061320;28;20032;-51
2023/08/08 01:43:11;;;;;;;8.48;2.28;;;12.20;99.90;;;;;;5069540;28;20032;-55
2023/08/08 01:45:38;;;;;;;6.85;1.55;;;12.30;99.90;;;;;;5060342;28;20128;-56
2023/08/08 01:48:13;;;;;;;4.72;1.38;;;12.30;99.90;;;;;;5048672;28;20058;-58
2023/08/08 01:50:38;;;;;;;5.88;1.30;;;12.30;99.90;;;;;;5043299;28;20486;-55
2023/08/08 01:53:04;;;;;;;3.22;1.67;;;12.30;99.90;;;;;;5052125;28;20032;-56
2023/08/08 01:55:30;;;;;;;5.95;2.20;;;12.30;99.90;;;;;;5053854;28;20029;-56
2023/08/08 01:57:56;;;;;;;2.38;1.90;;;12.30;99.90;;;;;;5065818;22;20110;-72
2023/08/08 02:00:22;;;;;;;3.50;1.65;;;12.40;99.90;;;;;;5050183;28;20227;-72
2023/08/08 02:02:47;;;;;;;4.22;2.13;;;12.30;99.90;;;;;;5050568;28;20243;-72
2023/08/08 02:05:13;;;;;;;5.90;2.15;;;12.40;99.90;;;;;;5045906;28;20395;-72
2023/08/08 02:07:38;;;;;;;3.70;1.95;;;12.40;99.90;;;;;;5050747;28;20489;-72
2023/08/08 02:10:04;;;;;;;2.55;1.45;;;12.40;99.90;;;;;;5049644;28;20548;-72
2023/08/08 02:12:30;;;;;;;;;;;12.40;99.90;;;;;;5046975;28;20032;-72
2023/08/08 02:14:57;;;;;;;3.65;1.70;;;12.40;99.90;;;;;;5050811;28;19961;-72
2023/08/08 02:17:22;;;;;;;7.80;1.77;;;12.40;99.90;;;;;;5046118;28;20033;-72
2023/08/08 02:19:48;;;;;;;3.60;1.58;;;12.40;99.90;;;;;;5050962;28;20043;-72
2023/08/08 02:22:13;;;;;;;2.55;1.35;;;12.40;99.90;;;;;;5051063;28;20013;-72
2023/08/08 02:24:39;;;;;;;;;;;12.40;99.90;;;;;;5050262;28;20020;-72
2023/08/08 02:27:04;;;;;;;3.00;1.52;;;12.40;99.90;;;;;;5051040;28;20375;-72
2023/08/08 02:29:30;;;;;;;3.67;1.48;;;12.40;99.90;;;;;;5051652;28;20021;-72
2023/08/08 02:31:56;;;;;;;;;;;12.40;99.90;;;;;;5051542;28;20032;-72
2023/08/08 02:34:21;;;;;;;3.10;1.60;;;12.40;99.90;;;;;;5044893;28;19920;-72
2023/08/08 02:36:47;;;;;;;10.43;1.95;;;12.40;99.90;;;;;;5051260;28;20517;-72
2023/08/08 02:39:12;;;;;;;5.63;1.73;;;12.40;99.90;;;;;;5047978;28;20025;-72
2023/08/08 02:41:38;;;;;;;3.15;1.85;;;12.40;99.90;;;;;;5050956;28;20021;-72
2023/08/08 02:44:03;;;;;;;;;;;12.40;99.90;;;;;;5051729;28;20009;-72
2023/08/08 02:46:29;;;;;;;2.65;1.17;;;12.40;99.90;;;;;;5050369;28;19909;-72
2023/08/08 02:48:54;;;;;;;2.60;1.73;;;12.50;99.90;;;;;;5043661;28;20478;-72
2023/08/08 02:51:19;;;;;;;;;;;12.50;99.90;;;;;;5050525;28;20040;-72
2023/08/08 02:53:45;;;;;;;3.92;1.20;;;12.40;99.90;;;;;;5046132;28;19909;-72
2023/08/08 02:56:11;;;;;;;7.22;1.45;;;12.40;99.90;;;;;;5050963;28;20025;-72
2023/08/08 02:58:36;;;;;;;;;;;12.50;99.90;;;;;;5051308;28;20021;-72
2023/08/08 03:01:02;;;;;;;3.08;1.45;;;12.50;99.90;;;;;;5049925;28;19924;-72
2023/08/08 03:03:27;;;;;;;1.95;1.40;;;12.50;99.90;;;;;;5050754;28;20083;-72
2023/08/08 03:05:53;;;;;;;2.38;1.67;;;12.60;99.90;;;;;;5054356;28;20104;-72
2023/08/08 03:08:18;;;;;;;2.80;1.90;;;12.60;99.90;;;;;;5058226;28;20048;-72
2023/08/08 03:10:43;;;;;;;;;;;12.60;99.90;;;;;;5050578;28;20029;-72
2023/08/08 03:13:09;;;;;;;3.20;1.40;;;12.70;99.90;;;;;;5051053;28;19912;-71
2023/08/08 03:15:35;;;;;;;6.88;1.77;;;12.70;99.90;;;;;;5050614;28;20033;-72
2023/08/08 03:18:01;;;;;;;5.05;1.67;;;12.60;99.90;;;;;;5049855;28;20025;-72
2023/08/08 03:20:27;;;;;;;5.28;1.52;;;12.70;99.90;;;;;;5051024;28;20021;-72
2023/08/08 03:22:52;;;;;;;4.55;1.85;;;12.70;99.90;;;;;;5049823;28;20013;-72
2023/08/08 03:25:18;;;;;;;;;;;12.70;99.90;;;;;;5050088;28;20033;-72
2023/08/08 03:27:43;;;;;;;4.18;1.70;;;12.80;99.90;;;;;;5050366;28;19905;-72
2023/08/08 03:30:09;;;;;;;1.55;1.38;;;12.80;99.90;;;;;;5050162;28;20021;-72
2023/08/08 03:32:35;;;;;;;1.95;1.30;;;12.80;99.90;;;;;;5050466;28;20049;-72
2023/08/08 03:35:00;;;;;;;4.93;2.03;;;12.70;99.90;;;;;;5052333;28;20028;-72
2023/08/08 03:37:26;;;;;;;;;;;12.70;99.90;;;;;;5053863;28;20025;-72
2023/08/08 03:39:51;;;;;;;1.75;1.05;;;12.70;99.90;;;;;;5047316;28;19916;-72
2023/08/08 03:42:17;;;;;;;3.25;1.92;;;12.70;99.90;;;;;;5053355;28;20033;-72
2023/08/08 03:44:45;;;;;;;;;;;12.70;99.90;;;;;;5055418;28;20013;-72
2023/08/08 03:47:10;;;;;;;6.20;1.83;;;12.80;99.90;;;;;;5053063;28;19908;-72
2023/08/08 03:49:36;;;;;;;3.47;1.58;;;12.80;99.90;;;;;;5053879;28;20055;-72
2023/08/08 03:52:01;;;;;;;4.80;2.85;;;12.80;99.90;;;;;;5054483;28;20028;-72
2023/08/08 03:54:27;;;;;;;4.80;2.03;;;12.80;99.90;;;;;;5049150;28;20027;-72
2023/08/08 03:56:52;;;;;;;6.00;1.98;;;12.80;99.90;;;;;;5053119;28;20021;-72
2023/08/08 03:59:18;;;;;;;;;;;12.80;99.90;;;;;;5053844;28;20116;-72
2023/08/08 04:01:43;;;;;;;8.10;2.53;;;12.80;99.90;;;;;;5049453;28;20294;-72
2023/08/08 04:04:09;;;;;;;4.55;2.78;;;12.90;99.90;;;;;;5051858;28;20021;-72
2023/08/08 04:06:34;;;;;;;;;;;12.90;99.90;;;;;;5054524;28;20475;-72
2023/08/08 04:09:00;;;;;;;6.00;2.78;;;12.90;99.90;;;;;;5047511;28;19959;-72
2023/08/08 04:11:26;;;;;;;5.25;2.33;;;13.00;99.90;;;;;;5051424;28;20032;-72
2023/08/08 04:13:52;;;;;;;5.47;3.22;;;13.00;99.90;;;;;;5050334;28;20487;-72
2023/08/08 04:16:18;;;;;;;;;;;13.10;99.90;;;;;;5049377;28;20032;-72
2023/08/08 04:18:43;;;;;;;10.30;4.63;;;13.10;99.90;;;;;;5052505;28;20016;-72
2023/08/08 04:21:09;;;;;;;8.00;3.67;;;13.10;99.90;;;;;;5051387;28;20033;-72
2023/08/08 04:23:35;;;;;;;9.88;5.43;;;13.20;99.90;;;;;;5051559;28;20025;-71
2023/08/08 04:26:00;;;;;;;8.48;3.75;;;13.20;99.90;;;;;;5050497;28;20048;-72
2023/08/08 04:28:26;;;;;;;3.95;2.50;;;13.20;99.90;;;;;;5051466;28;20024;-71
2023/08/08 04:30:51;;;;;;;4.07;2.05;;;13.20;99.90;;;;;;5051065;28;20090;-71
2023/08/08 04:33:17;;;;;;;6.57;3.13;;;13.30;99.90;;;;;;5053071;28;20067;-71
2023/08/08 04:35:42;;;;;;;;;;;13.30;99.90;;;;;;5046324;28;20025;-71
2023/08/08 04:38:08;;;;;;;4.15;2.05;;;13.30;99.90;;;;;;5048894;28;19912;-70
2023/08/08 04:40:35;;;;;;;5.20;2.25;;;13.30;99.90;;;;;;5051368;28;20060;-70
2023/08/08 04:43:01;;;;;;;6.82;2.47;;;13.30;99.90;;;;;;5051942;28;20104;-71
2023/08/08 04:45:27;;;;;;;4.70;2.22;;;13.40;99.90;;;;;;5051326;28;20456;-69
2023/08/08 04:47:52;;;;;;;2.78;1.75;;;13.40;99.90;;;;;;5052022;28;20021;-69
2023/08/08 04:50:18;;;;;;;3.80;1.90;;;13.40;99.90;;;;;;5050268;28;20024;-69
2023/08/08 04:52:43;;;;;;;;;;;13.40;99.90;;;;;;5046549;28;20025;-69
2023/08/08 04:55:09;;;;;;;7.15;1.70;;;13.50;99.90;;;;;;5051394;28;19908;-71
2023/08/08 04:57:35;;;;;;;4.10;2.00;;;13.50;99.90;;;;;;5050213;28;20061;-72
2023/08/08 05:00:06;;;;;;;;;;;13.60;99.90;;;;;;5052641;28;20546;-72
2023/08/08 05:02:32;;;;;;;4.28;1.85;;;13.60;99.90;;;;;;5053290;28;19909;-71
2023/08/08 05:04:57;;;;;;;1.45;1.10;;;13.60;99.90;;;;;;5052277;28;20036;-71
2023/08/08 05:07:23;;;;;;;;;;;13.60;99.90;;;;;;5048448;28;20083;-72
2023/08/08 05:09:48;;;;;;;5.18;2.47;;;13.70;99.90;;;;;;5040581;28;19911;-71
2023/08/08 05:12:14;;;;;;;2.60;1.70;;;13.70;99.90;;;;;;5044232;28;20433;-72
2023/08/08 05:14:39;;;;;;;4.32;1.23;;;13.70;99.90;;;;;;5050062;28;20106;-72
2023/08/08 05:17:05;;;;;;;;;;;13.70;99.90;;;;;;5046696;28;20033;-72
2023/08/08 05:19:30;;;;;;;4.60;2.05;;;13.70;99.90;;;;;;5047275;28;19915;-72
2023/08/08 05:21:56;;;;;;;5.57;1.50;;;13.80;99.90;;;;;;5047659;28;20047;-71
2023/08/08 05:24:21;;;;;;;17.20;2.85;;;13.80;99.90;;;;;;5044862;28;20261;-71
2023/08/08 05:26:47;;;;;;;3.05;1.80;;;13.90;99.90;;;;;;5036936;28;20033;-72
2023/08/08 05:29:12;;;;;;;4.82;1.50;;;13.90;99.90;;;;;;5048448;28;20056;-72
2023/08/08 05:31:38;;;;;;;5.70;2.17;;;13.90;99.90;;;;;;5050575;28;20032;-72
2023/08/08 05:34:03;;;;;;;11.65;4.45;;;14.00;99.90;;;;;;5042208;28;20037;-72
2023/08/08 05:36:29;;;;;;;4.70;1.88;;;14.00;99.90;;;;;;5047340;28;20068;-71
2023/08/08 05:38:54;;;;;;;11.80;3.20;;;14.00;99.90;;;;;;5052010;28;20053;-72
2023/08/08 05:41:20;;;;;;;6.85;2.95;;;14.10;99.90;;;;;;5049389;28;20104;-72
2023/08/08 05:43:45;;;;;;;5.82;3.20;;;14.10;99.90;;;;;;5049347;28;20383;-71
2023/08/08 05:46:11;;;;;;;3.28;2.22;;;14.20;99.90;;;;;;5048553;28;20459;-69
2023/08/08 05:48:36;;;;;;;4.97;1.00;;;14.30;99.90;;;;;;5048965;28;20525;-68
2023/08/08 05:51:04;;;;;;;3.33;1.77;;;14.30;99.90;;;;;;5047333;28;20040;-71
2023/08/08 05:53:31;;;;;;;2.97;1.25;;;14.40;99.90;;;;;;5051062;28;20029;-71
2023/08/08 05:55:56;;;;;;;2.97;1.50;;;14.50;99.90;;;;;;5051630;28;20418;-70
2023/08/08 05:58:22;;;;;;;1.58;1.20;;;14.50;99.90;;;;;;5046089;28;20025;-71
2023/08/08 06:00:48;;;;;;;2.53;1.38;;;14.60;99.90;;;;;;5046262;28;20033;-71
2023/08/08 06:03:13;;;;;;;3.83;1.30;;;14.60;99.90;;;;;;5045270;28;20013;-72
2023/08/08 06:05:39;;;;;;;5.30;1.67;;;14.60;99.90;;;;;;5051433;28;20032;-71
2023/08/08 06:08:07;;;;;;;2.35;1.48;;;14.60;99.90;;;;;;5041630;28;20034;-72
2023/08/08 06:10:33;;;;;;;4.28;2.10;;;14.70;99.90;;;;;;5042303;28;20029;-70
2023/08/08 06:12:59;;;;;;;2.78;1.85;;;14.70;99.90;;;;;;5044435;28;20029;-70
2023/08/08 06:15:24;;;;;;;4.78;1.85;;;14.80;99.90;;;;;;5048524;28;20051;-70
2023/08/08 06:17:50;;;;;;;2.70;1.63;;;14.90;99.90;;;;;;5049469;28;20522;-70
2023/08/08 06:20:15;;;;;;;4.20;1.40;;;15.00;99.90;;;;;;5041080;28;20467;-72
2023/08/08 06:22:42;;;;;;;5.10;2.20;;;15.00;99.90;;;;;;5048562;28;20075;-72
2023/08/08 06:25:07;;;;;;;5.47;1.98;;;15.10;99.90;;;;;;5046434;28;20488;-72
2023/08/08 06:27:33;;;;;;;3.97;1.55;;;15.10;99.90;;;;;;5046375;28;20039;-72
2023/08/08 06:29:58;;;;;;;3.97;2.22;;;15.20;99.90;;;;;;5040622;28;20037;-72
2023/08/08 06:32:24;;;;;;;4.68;2.22;;;15.30;99.90;;;;;;5037339;28;20028;-71
2023/08/08 06:34:50;;;;;;;10.40;2.17;;;15.40;99.90;;;;;;5039503;28;20036;-72
2023/08/08 06:37:15;;;;;;;4.00;1.92;;;15.40;99.90;;;;;;5041826;28;20021;-72
2023/08/08 06:39:41;;;;;;;5.55;1.95;;;15.50;99.90;;;;;;5040556;28;20025;-71
2023/08/08 06:42:07;;;;;;;2.75;1.98;;;15.60;99.90;;;;;;5036169;28;20035;-72
2023/08/08 06:44:33;;;;;;;2.58;1.48;;;15.70;99.90;;;;;;5039728;28;20420;-71
2023/08/08 06:46:59;;;;;;;5.22;2.28;;;15.80;99.90;;;;;;5039315;28;20513;-71
2023/08/08 06:49:24;;;;;;;4.90;3.35;;;15.90;99.90;;;;;;5041102;28;20118;-72
2023/08/08 06:51:50;;;;;;;9.60;2.53;;;15.90;99.90;;;;;;5039784;28;20415;-72
2023/08/08 06:54:15;;;;;;;5.03;2.33;;;15.90;99.90;;;;;;5039050;28;20060;-72
2023/08/08 06:56:41;;;;;;;7.22;2.33;;;15.90;99.90;;;;;;5039415;28;20188;-72
2023/08/08 06:59:06;;;;;;;4.50;2.85;;;15.90;99.90;;;;;;5039398;28;20056;-72
2023/08/08 07:01:32;;;;;;;4.80;2.97;;;15.90;99.90;;;;;;5038911;28;20102;-71
2023/08/08 07:03:58;;;;;;;1.98;1.52;;;16.00;99.90;;;;;;5038358;28;20562;-72
2023/08/08 07:06:23;;;;;;;4.47;2.33;;;16.10;99.90;;;;;;5040534;28;20061;-71
2023/08/08 07:08:49;;;;;;;4.20;1.80;;;16.30;99.90;;;;;;5040448;28;20024;-72
2023/08/08 07:11:14;;;;;;;4.70;2.42;;;16.40;99.90;;;;;;5043546;28;20028;-71
2023/08/08 07:13:40;;;;;;;6.97;2.00;;;16.40;99.90;;;;;;5052501;28;20147;-72
2023/08/08 07:16:05;;;;;;;4.47;1.70;;;16.60;99.90;;;;;;5034461;28;20506;-72
2023/08/08 07:18:31;;;;;;;4.25;2.38;;;16.70;99.90;;;;;;5052702;28;20025;-72
2023/08/08 07:20:56;;;;;;;3.65;2.65;;;16.80;99.90;;;;;;5046252;28;20032;-71
2023/08/08 07:23:22;;;;;;;4.90;2.05;;;16.90;99.90;;;;;;5039841;28;20616;-72
2023/08/08 07:25:48;;;;;;;4.60;1.67;;;17.10;99.90;;;;;;5045196;28;20262;-71
2023/08/08 07:28:14;;;;;;;11.10;2.63;;;17.10;99.90;;;;;;5042635;28;20036;-72
2023/08/08 07:30:40;;;;;;;6.55;2.40;;;17.10;99.90;;;;;;5044457;28;20033;-71
2023/08/08 07:33:08;;;;;;;3.13;1.60;;;17.20;99.90;;;;;;5044882;28;20114;-71
2023/08/08 07:35:34;;;;;;;8.50;3.00;;;17.30;99.90;;;;;;5043310;28;20036;-71
2023/08/08 07:38:00;;;;;;;4.28;3.35;;;17.30;99.90;;;;;;5045094;28;20021;-72
2023/08/08 07:40:25;;;;;;;3.60;2.35;;;17.20;99.90;;;;;;5042067;28;20054;-71
2023/08/08 07:42:51;;;;;;;3.28;2.35;;;17.20;99.90;;;;;;5042279;28;20025;-73
2023/08/08 07:45:17;;;;;;;3.15;2.20;;;17.20;99.90;;;;;;5040869;28;20021;-71
2023/08/08 07:47:42;;;;;;;6.22;2.95;;;17.40;99.90;;;;;;5044842;28;20029;-72
2023/08/08 07:50:08;;;;;;;3.97;2.88;;;17.40;99.90;;;;;;5042258;28;20032;-72
2023/08/08 07:52:35;;;;;;;4.32;2.67;;;17.50;99.90;;;;;;5042781;28;20064;-72
2023/08/08 07:55:01;;;;;;;7.15;3.22;;;17.50;99.90;;;;;;5043262;28;20134;-71
2023/08/08 07:57:27;;;;;;;4.78;2.33;;;17.40;99.90;;;;;;5042517;28;20533;-71
2023/08/08 07:59:53;;;;;;;5.78;3.42;;;17.40;99.90;;;;;;5044001;28;20033;-72
2023/08/08 08:02:18;;;;;;;5.88;3.10;;;17.30;99.90;;;;;;5040368;28;20021;-72
2023/08/08 08:04:44;;;;;;;5.40;3.03;;;17.20;99.90;;;;;;5042871;28;20220;-72
2023/08/08 08:07:09;;;;;;;3.38;2.47;;;17.20;99.90;;;;;;5042395;28;20425;-73
2023/08/08 08:09:35;;;;;;;4.53;2.67;;;17.30;99.70;;;;;;5043902;28;20039;-72
2023/08/08 08:12:00;;;;;;;6.32;2.88;;;17.50;99.60;;;;;;5041006;28;20067;-72
2023/08/08 08:14:26;;;;;;;6.72;3.15;;;17.70;99.30;;;;;;5043232;28;20056;-71
2023/08/08 08:16:52;;;;;;;6.47;2.80;;;17.90;98.90;;;;;;5043292;28;20033;-71
2023/08/08 08:19:18;;;;;;;7.88;2.80;;;18.10;98.50;;;;;;5041474;28;20391;-71
2023/08/08 08:21:43;;;;;;;9.40;2.78;;;18.30;97.90;;;;;;5042017;28;20033;-70
2023/08/08 08:24:09;;;;;;;9.40;2.90;;;18.40;97.80;;;;;;5040634;28;20029;-71
2023/08/08 08:26:35;;;;;;;4.90;1.88;;;18.40;96.80;;;;;;5040918;28;20059;-71
2023/08/08 08:29:00;;;;;;;5.28;2.75;;;18.20;96.70;;;;;;5042280;28;20143;-71
2023/08/08 08:31:26;;;;;;;5.15;2.92;;;18.00;96.90;;;;;;5041059;28;20063;-71
2023/08/08 08:33:55;;;;;;;6.75;2.45;;;18.00;97.10;;;;;;5044438;28;20036;-71
2023/08/08 08:36:21;;;;;;;5.25;1.90;;;18.00;96.90;;;;;;5041641;28;20028;-71
2023/08/08 08:38:47;;;;;;;8.35;2.58;;;18.00;96.90;;;;;;5042029;28;20021;-71
2023/08/08 08:41:18;;;;;;;3.42;1.50;;;18.10;96.80;;;;;;5042847;28;20075;-71
2023/08/08 08:43:43;;;;;;;2.22;1.70;;;18.30;96.80;;;;;;5043421;28;20082;-71
2023/08/08 08:46:11;;;;;;;6.57;2.70;;;18.40;96.30;;;;;;5040005;28;20053;-72
2023/08/08 08:48:36;;;;;;;4.93;1.30;;;18.50;95.90;;;;;;5043002;28;20028;-72
2023/08/08 08:51:02;;;;;;;4.32;1.75;;;18.60;95.20;;;;;;5042153;28;20077;-72
2023/08/08 08:53:28;;;;;;;7.65;2.47;;;18.70;95.10;;;;;;5042230;28;20040;-71
2023/08/08 08:55:56;;;;;;;6.65;1.40;;;18.90;94.40;;;;;;5040507;28;20032;-70
2023/08/08 08:58:24;;;;;;;3.40;1.35;;;18.90;94.60;;;;;;5040682;28;20040;-70
2023/08/08 09:00:51;;;;;;;1.95;1.35;;;19.00;94.30;;;;;;5041041;28;20126;-72
2023/08/08 09:03:17;;;;;;;2.10;1.88;;;19.10;94.00;;;;;;5041400;28;20029;-72
2023/08/08 09:05:44;;;;;;;1.67;1.55;;;19.10;94.30;;;;;;5041820;28;20032;-73
2023/08/08 09:08:11;;;;;;;3.63;1.35;;;19.20;94.30;;;;;;5041863;28;20041;-73
2023/08/08 09:10:38;;;;;;;2.20;1.52;;;19.20;94.10;;;;;;5041625;28;20555;-73
2023/08/08 09:13:03;;;;;;;3.25;1.40;;;19.20;93.90;;;;;;5051586;28;20035;-72
2023/08/08 09:15:33;;;;;;;4.57;1.83;;;19.30;94.00;;;;;;5046892;28;20399;-72
2023/08/08 09:18:00;;;;;;;2.67;1.40;;;19.30;93.50;;;;;;5050879;28;20029;-72
2023/08/08 09:20:29;;;;;;;2.40;1.50;;;19.30;93.70;;;;;;5043302;28;20032;-72
2023/08/08 09:22:55;;;;;;;2.33;1.63;;;19.30;93.50;;;;;;5042762;28;20029;-72
2023/08/08 09:25:21;;;;;;;5.47;1.60;;;19.20;94.00;;;;;;5044686;28;20032;-72
2023/08/08 09:27:47;;;;;;;3.63;1.50;;;19.10;94.50;;;;;;5044519;28;20029;-72
2023/08/08 09:30:12;;;;;;;3.38;1.55;;;19.10;95.00;;;;;;5041862;28;20612;-72
2023/08/08 09:32:38;;;;;;;6.90;2.08;;;18.90;95.50;;;;;;5042403;28;20060;-72
2023/08/08 09:35:09;;;;;;;7.72;2.08;;;18.80;95.80;;;;;;5043374;28;20029;-72
2023/08/08 09:37:35;;;;;;;3.20;1.65;;;18.80;96.00;;;;;;5040167;28;20025;-73
2023/08/08 09:40:07;;;;;;;4.53;1.50;;;18.80;95.90;;;;;;5041318;28;20071;-72
2023/08/08 09:42:33;;;;;;;4.03;1.63;;;18.90;95.70;;;;;;5040550;28;20453;-72
2023/08/08 09:44:59;;;;;;;4.88;1.60;;;19.00;96.00;;;;;;5042944;28;20475;-72
2023/08/08 09:47:30;;;;;;;3.65;1.92;;;19.20;96.00;;;;;;5040325;28;20025;-72
2023/08/08 09:50:01;;;;;;;2.40;1.60;;;19.30;95.80;;;;;;5042996;28;20029;-72
2023/08/08 09:52:27;;;;;;;6.25;2.10;;;19.20;95.60;;;;;;5038664;28;20510;-72
2023/08/08 09:54:54;;;;;;;7.15;2.42;;;19.10;96.00;;;;;;5043130;28;20039;-72
2023/08/08 09:57:21;;;;;;;2.85;1.73;;;19.00;96.70;;;;;;5040892;28;20116;-72
2023/08/08 09:59:49;;;;;;;6.32;2.25;;;18.80;96.80;;;;;;5041258;28;20025;-72
2023/08/08 10:02:15;;;;;;;4.10;2.20;;;18.80;96.90;;;;;;5037962;28;20521;-72
2023/08/08 10:04:42;;;;;;;4.55;2.45;;;18.70;97.00;;;;;;5039536;28;21188;-71
2023/08/08 10:07:08;;;;;;;5.85;2.00;;;18.80;96.90;;;;;;5041743;28;20094;-71
2023/08/08 10:09:34;;;;;;;7.05;1.80;;;18.80;96.80;;;;;;5040699;28;20521;-72
2023/08/08 10:12:00;;;;;;;3.97;1.45;;;18.90;96.90;;;;;;5040332;28;20116;-73
2023/08/08 10:14:31;;;;;;;3.95;2.00;;;19.00;96.90;;;;;;5041463;28;20028;-72
2023/08/08 10:16:57;;;;;;;4.60;2.15;;;19.20;96.80;;;;;;5041316;28;20139;-72
2023/08/08 10:19:23;;;;;;;3.00;1.50;;;19.90;96.60;;;;;;5038942;28;20024;-72
2023/08/08 10:21:54;;;;;;;2.78;2.03;;;20.90;94.10;;;;;;5040690;28;20025;-72
2023/08/08 10:24:21;;;;;;;4.57;2.00;;;21.00;94.40;;;;;;5041870;28;20028;-73
2023/08/08 10:26:59;;;;;;;4.65;1.67;;;20.90;94.10;;;;;;5040683;28;20442;-72
2023/08/08 10:29:26;;;;;;;2.72;2.53;;;20.90;93.80;;;;;;5040062;28;20025;-70
2023/08/08 10:32:04;;;;;;;5.60;2.30;;;20.80;93.50;;;;;;5041004;28;20148;-70
2023/08/08 10:34:41;;;;;;;5.90;2.33;;;20.70;94.00;;;;;;5041323;28;20146;-70
2023/08/08 10:37:15;;;;;;;4.97;2.50;;;20.70;94.40;;;;;;5039984;28;20031;-72
2023/08/08 10:39:54;;;;;;;6.90;2.33;;;20.70;94.20;;;;;;5039437;28;20033;-73
2023/08/08 10:42:22;;;;;;;2.20;1.83;;;20.60;93.30;;;;;;5039382;28;20025;-72
2023/08/08 10:45:02;;;;;;;3.05;2.33;;;20.50;93.10;;;;;;5039130;28;20021;-72
2023/08/08 10:47:34;;;;;;;5.25;2.15;;;20.30;93.40;;;;;;5037948;28;21569;-73
2023/08/08 10:50:11;;;;;;;4.15;1.85;;;20.20;93.40;;;;;;5039966;28;20033;-73
2023/08/08 10:52:52;;;;;;;4.18;2.00;;;20.00;93.50;;;;;;5038856;28;20790;-72
2023/08/08 10:55:33;;;;;;;4.93;3.13;;;20.10;93.50;;;;;;5041865;28;20471;-71
2023/08/08 10:58:04;;;;;;;7.32;2.42;;;20.20;93.90;;;;;;5038026;28;20029;-73
2023/08/08 11:00:32;;;;;;;5.78;2.28;;;20.40;93.60;;;;;;5037986;28;20025;-73
2023/08/08 11:02:59;;;;;;;10.43;2.97;;;20.50;93.60;;;;;;5041466;28;20047;-73
2023/08/08 11:05:26;;;;;;;6.13;3.08;;;20.60;93.50;;;;;;5041018;28;20021;-72
2023/08/08 11:07:51;;;;;;;4.93;2.78;;;20.60;92.90;;;;;;5038353;28;20114;-73
2023/08/08 11:10:17;;;;;;;4.63;2.33;;;20.60;92.50;;;;;;5039264;28;20025;-72
2023/08/08 11:12:57;;;;;;;3.80;1.90;;;20.60;92.30;;;;;;5040468;28;20060;-72
2023/08/08 11:15:23;;;;;;;3.17;2.53;;;20.60;91.90;;;;;;5046044;28;21606;-72
2023/08/08 11:17:49;;;;;;;4.85;2.42;;;20.60;92.00;;;;;;5048729;28;20470;-72
2023/08/08 11:20:15;;;;;;;6.03;2.65;;;20.70;92.80;;;;;;5041070;28;20021;-71
2023/08/08 11:22:40;;;;;;;6.35;2.10;;;20.70;92.20;;;;;;5040667;28;20027;-72
2023/08/08 11:25:07;;;;;;;6.65;2.22;;;20.60;92.30;;;;;;5039871;28;20040;-72
2023/08/08 11:27:33;;;;;;;7.35;2.72;;;20.50;92.20;;;;;;5040435;28;20124;-72
2023/08/08 11:29:58;;;;;;;3.15;2.50;;;20.50;91.90;;;;;;5041211;28;20143;-73
2023/08/08 11:32:28;;;;;;;3.00;2.17;;;20.50;92.00;;;;;;5038090;28;20035;-72
2023/08/08 11:34:54;;;;;;;6.60;2.53;;;20.60;92.20;;;;;;5041173;28;20033;-72
2023/08/08 11:37:20;;;;;;;7.68;3.50;;;20.70;91.70;;;;;;5039441;28;20033;-72
2023/08/08 11:39:46;;;;;;;4.32;2.20;;;20.70;91.70;;;;;;5038649;28;20029;-72
2023/08/08 11:42:11;;;;;;;5.13;2.85;;;20.70;92.50;;;;;;5041077;28;20116;-73
2023/08/08 11:44:37;;;;;;;10.48;3.63;;;20.80;92.20;;;;;;5040753;28;20382;-72
2023/08/08 11:47:03;;;;;;;4.35;2.80;;;20.70;92.10;;;;;;5037616;28;20124;-71
2023/08/08 11:49:29;;;;;;;5.65;2.88;;;20.60;92.10;;;;;;5036954;28;20034;-72
2023/08/08 11:51:59;;;;;;;4.72;2.78;;;20.50;92.20;;;;;;5040931;28;20032;-71
2023/08/08 11:54:28;;;;;;;4.43;3.00;;;20.40;93.90;;;;;;5039622;28;20029;-71
2023/08/08 11:56:53;;;;;;;3.42;2.30;;;20.30;94.50;;;;;;5042852;28;20171;-71
2023/08/08 11:59:19;;;;;;;2.92;2.60;;;19.90;94.80;;;;;;5042461;28;20162;-70
2023/08/08 12:01:45;;;;;;;4.25;2.25;;;19.60;94.30;;;;;;5042241;28;20029;-70
2023/08/08 12:04:10;;;;;;;5.38;2.83;;;19.40;95.10;;;;;;5043654;28;20547;-70
2023/08/08 12:06:39;;;;;;;4.93;2.15;;;19.20;95.10;;;;;;5039369;28;20028;-70
2023/08/08 12:09:06;;;;;;;3.58;2.13;;;19.10;94.20;;;;;;5042225;28;20040;-70
2023/08/08 12:11:36;;;;;;;3.08;1.40;;;19.10;94.10;;;;;;5040456;28;20033;-74
2023/08/08 12:14:01;;;;;;;3.30;1.88;;;19.20;93.40;;;;;;5041960;28;20029;-74
2023/08/08 12:16:32;;;;;;;5.35;1.20;;;19.30;92.70;;;;;;5043210;28;20087;-72
2023/08/08 12:19:00;;;;;;;5.82;1.38;;;19.40;92.30;;;;;;5042146;28;20372;-73
2023/08/08 12:21:26;;;;;;;5.55;1.33;;;19.70;92.30;;;;;;5044550;28;20028;-71
2023/08/08 12:23:52;;;;;;;4.68;1.30;;;19.90;91.40;;;;;;5041740;28;20032;-72
2023/08/08 12:26:18;;;;;;;4.00;1.40;;;20.10;90.70;;;;;;5043251;28;20051;-72
2023/08/08 12:28:44;;;;;;;4.95;1.33;;;20.20;90.90;;;;;;5042943;28;20033;-73
2023/08/08 12:31:09;;;;;;;2.35;1.35;;;20.40;89.90;;;;;;5041503;28;20029;-72
2023/08/08 12:33:35;;;;;;;3.05;1.25;;;20.60;90.20;;;;;;5042092;28;20057;-72
2023/08/08 12:36:00;;;;;;;5.13;1.00;;;20.80;90.20;;;;;;5042621;28;20035;-72
2023/08/08 12:38:26;;;;;;;1.25;0.70;;;20.80;85.50;;;;;;5042393;28;20033;-72
2023/08/08 12:40:52;;;;;;;2.97;1.40;;;20.70;84.80;;;;;;5042629;28;20464;-73
2023/08/08 12:43:17;;;;;;;5.60;1.30;;;20.60;86.40;;;;;;5044883;28;20021;-72
2023/08/08 12:45:46;;;;;;;3.47;1.05;;;20.40;87.00;;;;;;5040306;28;20044;-72
2023/08/08 12:48:12;;;;;;;6.88;0.95;;;20.30;86.80;;;;;;5042212;28;20111;-72
2023/08/08 12:50:38;;;;;;;3.05;1.13;;;20.30;86.60;;;;;;5039541;28;20120;-71